createdAt,value
2023-08-29T00:03:04.608Z,43.69
2023-08-29T00:08:06.721Z,43.73
2023-08-29T00:13:08.289Z,43.50
2023-08-29T00:18:09.904Z,43.39
2023-08-29T00:23:11.564Z,43.77
2023-08-29T00:28:13.010Z,44.13
2023-08-29T00:33:14.299Z,44.03
2023-08-29T00:38:15.607Z,43.95
2023-08-29T00:43:16.889Z,43.86
2023-08-29T00:48:18.270Z,44.10
2023-08-29T00:53:19.601Z,43.83
2023-08-29T00:58:20.906Z,43.89
2023-08-29T01:03:22.824Z,43.97
2023-08-29T01:08:24.230Z,44.36
2023-08-29T01:13:25.471Z,44.40
2023-08-29T01:18:27.670Z,44.46
2023-08-29T01:23:36.375Z,44.21
2023-08-29T01:28:37.679Z,44.43
2023-08-29T01:33:39.424Z,44.29
2023-08-29T01:38:40.762Z,44.39
2023-08-29T01:43:42.055Z,44.44
2023-08-29T01:48:43.395Z,44.30
2023-08-29T01:53:44.718Z,44.72
2023-08-29T01:58:46.022Z,44.60
2023-08-29T02:03:47.582Z,44.65
2023-08-29T02:08:48.915Z,44.56
2023-08-29T02:13:50.223Z,44.56
2023-08-29T02:18:52.660Z,44.81
2023-08-29T02:23:53.977Z,44.73
2023-08-29T02:28:55.310Z,44.73
2023-08-29T02:33:56.659Z,44.71
2023-08-29T02:38:58.222Z,44.56
2023-08-29T02:43:59.525Z,44.72
2023-08-29T02:49:00.838Z,44.60
2023-08-29T02:54:02.997Z,44.78
2023-08-29T02:59:04.516Z,44.78
2023-08-29T03:04:05.889Z,44.85
2023-08-29T03:09:08.648Z,44.80
2023-08-29T03:14:10.129Z,44.96
2023-08-29T03:19:11.964Z,45.09
2023-08-29T03:24:13.273Z,45.25
2023-08-29T03:29:14.643Z,45.24
2023-08-29T03:34:15.949Z,45.43
2023-08-29T03:39:17.254Z,45.25
2023-08-29T03:44:18.544Z,45.23
2023-08-29T03:49:19.834Z,45.38
2023-08-29T03:54:21.143Z,45.18
2023-08-29T03:59:22.430Z,45.35
2023-08-29T04:04:23.995Z,45.20
2023-08-29T04:09:25.453Z,45.37
2023-08-29T04:14:26.809Z,45.25
2023-08-29T04:19:28.102Z,45.34
2023-08-29T04:24:30.512Z,45.26
2023-08-29T04:29:31.825Z,45.31
2023-08-29T04:34:33.132Z,45.11
2023-08-29T04:39:36.696Z,45.25
2023-08-29T04:44:38.910Z,45.58
2023-08-29T04:49:40.206Z,45.63
2023-08-29T04:54:41.863Z,45.46
2023-08-29T04:59:43.176Z,45.36
2023-08-29T05:04:45.448Z,45.43
2023-08-29T05:09:48.029Z,45.28
2023-08-29T05:14:49.736Z,45.24
2023-08-29T05:19:51.973Z,45.37
2023-08-29T05:24:53.322Z,45.61
2023-08-29T05:29:54.649Z,45.65
2023-08-29T05:34:55.936Z,45.70
2023-08-29T05:39:57.266Z,45.52
2023-08-29T05:44:58.587Z,45.70
2023-08-29T05:50:00.194Z,45.59
2023-08-29T05:55:01.487Z,45.62
2023-08-29T06:00:06.316Z,45.20
2023-08-29T06:05:08.070Z,45.71
2023-08-29T06:10:09.572Z,45.61
2023-08-29T06:15:10.871Z,45.40
2023-08-29T06:20:12.442Z,45.62
2023-08-29T06:25:14.021Z,45.68
2023-08-29T06:30:16.517Z,45.35
2023-08-29T06:35:18.176Z,45.52
2023-08-29T06:40:19.485Z,45.53
2023-08-29T06:45:20.781Z,46.06
2023-08-29T06:50:22.127Z,45.69
2023-08-29T06:55:24.700Z,45.26
2023-08-29T07:00:26.274Z,45.63
2023-08-29T07:05:27.580Z,45.34
2023-08-29T07:10:28.889Z,45.49
2023-08-29T07:15:30.218Z,45.35
2023-08-29T07:20:31.600Z,45.39
2023-08-29T07:25:36.256Z,45.27
2023-08-29T07:30:47.172Z,45.23
2023-08-29T07:35:48.965Z,45.10
2023-08-29T07:40:50.399Z,45.46
2023-08-29T07:45:54.080Z,45.70
2023-08-29T07:50:55.419Z,45.15
2023-08-29T07:55:56.707Z,45.22
2023-08-29T08:00:58.566Z,45.15
2023-08-29T08:05:59.948Z,45.31
2023-08-29T08:11:01.290Z,45.02
2023-08-29T08:16:04.968Z,45.09
2023-08-29T08:21:07.890Z,44.92
2023-08-29T08:26:09.580Z,45.09
2023-08-29T08:31:10.871Z,44.89
2023-08-29T08:36:12.179Z,44.38
2023-08-29T08:41:13.488Z,44.58
2023-08-29T08:46:15.990Z,44.69
2023-08-29T08:51:17.335Z,44.25
2023-08-29T08:56:18.633Z,44.57
2023-08-29T09:01:19.979Z,44.69
2023-08-29T09:06:21.302Z,44.18
2023-08-29T09:11:22.599Z,44.75
2023-08-29T09:16:24.635Z,45.12
2023-08-29T09:21:25.954Z,44.67
2023-08-29T09:26:36.272Z,44.69
2023-08-29T09:31:37.636Z,44.79
2023-08-29T09:36:39.401Z,44.89
2023-08-29T09:41:40.706Z,44.90
2023-08-29T09:46:44.097Z,45.42
2023-08-29T09:51:45.407Z,45.01
2023-08-29T09:56:46.726Z,45.19
2023-08-29T10:01:48.046Z,45.47
2023-08-29T10:06:49.718Z,45.51
2023-08-29T10:11:54.690Z,45.88
2023-08-29T10:16:56.492Z,45.92
2023-08-29T10:21:57.851Z,45.49
2023-08-29T10:26:59.382Z,45.78
2023-08-29T10:32:00.851Z,45.98
2023-08-29T10:37:02.143Z,45.98
2023-08-29T10:42:04.475Z,45.93
2023-08-29T10:47:16.351Z,45.43
2023-08-29T10:52:19.717Z,45.45
2023-08-29T10:57:28.655Z,45.52
2023-08-29T11:02:31.836Z,45.63
2023-08-29T11:07:33.165Z,45.85
2023-08-29T11:12:34.490Z,45.87
2023-08-29T11:17:35.819Z,46.30
2023-08-29T11:22:37.228Z,46.02
2023-08-29T11:27:38.618Z,46.48
2023-08-29T11:32:40.310Z,46.50
2023-08-29T11:37:41.663Z,46.70
2023-08-29T11:43:16.744Z,47.09
2023-08-29T11:48:05.987Z,47.02
2023-08-29T11:53:07.609Z,47.30
2023-08-29T11:58:09.759Z,47.30
2023-08-29T12:03:11.340Z,47.22
2023-08-29T12:08:12.651Z,47.34
2023-08-29T12:13:13.971Z,47.23
2023-08-29T12:18:24.499Z,47.05
2023-08-29T12:23:27.272Z,47.06
2023-08-29T12:28:28.588Z,46.95
2023-08-29T12:33:29.957Z,46.98
2023-08-29T12:38:32.416Z,47.01
2023-08-29T12:43:33.969Z,46.81
2023-08-29T12:48:35.400Z,47.05
2023-08-29T12:53:36.704Z,47.00
2023-08-29T12:58:37.997Z,46.69
2023-08-29T13:03:39.457Z,46.69
2023-08-29T13:08:40.855Z,46.72
2023-08-29T13:13:42.275Z,46.55
2023-08-29T13:18:43.754Z,46.55
2023-08-29T13:23:45.068Z,46.62
2023-08-29T13:28:47.927Z,46.77
2023-08-29T13:33:52.494Z,46.82
2023-08-29T13:38:53.836Z,46.87
2023-08-29T13:43:55.138Z,47.04
2023-08-29T13:48:57.002Z,46.64
2023-08-29T13:53:58.305Z,46.94
2023-08-29T13:58:59.625Z,46.33
2023-08-29T14:04:01.487Z,46.47
2023-08-29T14:09:03.600Z,46.28
2023-08-29T14:14:05.002Z,45.98
2023-08-29T14:19:06.933Z,46.32
2023-08-29T14:24:08.365Z,46.07
2023-08-29T14:29:09.671Z,46.35
2023-08-29T14:34:10.982Z,46.05
2023-08-29T14:39:12.334Z,46.27
2023-08-29T14:44:13.662Z,46.19
2023-08-29T14:49:16.409Z,46.09
2023-08-29T14:54:17.746Z,46.30
2023-08-29T14:59:19.051Z,46.23
2023-08-29T15:04:20.398Z,46.17
2023-08-29T15:09:21.703Z,46.07
2023-08-29T15:14:23.037Z,46.28
2023-08-29T15:19:24.326Z,46.17
2023-08-29T15:24:25.783Z,45.75
2023-08-29T15:29:27.074Z,45.63
2023-08-29T15:34:30.031Z,45.66
2023-08-29T15:39:31.328Z,45.86
2023-08-29T15:44:36.662Z,45.64
2023-08-29T15:49:39.141Z,45.88
2023-08-29T15:54:40.435Z,45.75
2023-08-29T15:59:41.728Z,45.97
2023-08-29T16:04:43.788Z,46.20
2023-08-29T16:09:45.082Z,46.56
2023-08-29T16:14:46.480Z,46.23
2023-08-29T16:19:47.797Z,46.18
2023-08-29T16:24:49.098Z,46.36
2023-08-29T16:29:53.666Z,46.30
2023-08-29T16:34:55.161Z,46.52
2023-08-29T16:39:56.579Z,45.82
2023-08-29T16:44:58.524Z,45.63
2023-08-29T16:49:59.825Z,45.58
2023-08-29T16:55:02.603Z,45.76
2023-08-29T17:00:08.128Z,45.79
2023-08-29T17:05:09.463Z,45.74
2023-08-29T17:10:11.043Z,45.34
2023-08-29T17:15:13.846Z,45.56
2023-08-29T17:20:15.191Z,45.79
2023-08-29T17:25:16.550Z,45.66
2023-08-29T17:30:17.857Z,45.80
2023-08-29T17:35:19.191Z,45.58
2023-08-29T17:40:20.531Z,45.89
2023-08-29T17:45:21.816Z,45.51
2023-08-29T17:50:23.098Z,45.88
2023-08-29T17:55:24.404Z,45.63
2023-08-29T18:00:25.696Z,45.65
2023-08-29T18:05:27.653Z,45.78
2023-08-29T18:10:28.959Z,45.85
2023-08-29T18:15:30.259Z,45.77
2023-08-29T18:20:31.558Z,45.87
2023-08-29T18:25:33.655Z,46.09
2023-08-29T18:30:35.326Z,45.97
2023-08-29T18:35:36.632Z,45.85
2023-08-29T18:40:37.980Z,45.92
2023-08-29T18:45:39.601Z,46.35
2023-08-29T18:50:41.800Z,46.24
2023-08-29T18:55:43.521Z,45.93
2023-08-29T19:00:46.321Z,46.03
2023-08-29T19:05:47.668Z,46.01
2023-08-29T19:10:50.271Z,46.29
2023-08-29T19:15:52.578Z,46.32
2023-08-29T19:20:54.040Z,46.21
2023-08-29T19:25:58.397Z,46.27
2023-08-29T19:30:59.707Z,46.35
2023-08-29T19:36:13.744Z,46.22
2023-08-29T19:41:15.035Z,46.67
2023-08-29T19:46:16.405Z,46.58
2023-08-29T19:51:18.336Z,46.54
2023-08-29T19:56:19.629Z,46.68
2023-08-29T20:01:20.989Z,46.54
2023-08-29T20:06:24.072Z,46.50
2023-08-29T20:11:25.361Z,46.49
2023-08-29T20:16:26.690Z,46.51
2023-08-29T20:21:28.041Z,46.57
2023-08-29T20:26:30.467Z,46.73
2023-08-29T20:31:31.860Z,46.37
2023-08-29T20:36:33.164Z,46.83
2023-08-29T20:41:34.554Z,46.78
2023-08-29T20:46:35.870Z,47.20
2023-08-29T20:51:39.008Z,47.36
2023-08-29T20:56:40.299Z,47.32
2023-08-29T21:01:41.610Z,47.61
2023-08-29T21:06:42.935Z,47.52
2023-08-29T21:11:44.250Z,47.55
2023-08-29T21:16:47.085Z,47.80
2023-08-29T21:21:48.681Z,47.72
2023-08-29T21:26:50.034Z,47.70
2023-08-29T21:31:51.349Z,47.53
2023-08-29T21:36:52.702Z,47.17
2023-08-29T21:41:53.994Z,47.49
2023-08-29T21:46:55.321Z,47.30
2023-08-29T21:51:56.629Z,47.12
2023-08-29T21:56:57.923Z,47.34
2023-08-29T22:01:59.226Z,47.22
2023-08-29T22:07:00.534Z,47.17
2023-08-29T22:12:04.721Z,46.95
2023-08-29T22:17:06.094Z,47.10
2023-08-29T22:22:07.399Z,47.01
2023-08-29T22:27:08.696Z,47.09
2023-08-29T22:32:10.045Z,46.77
2023-08-29T22:37:11.767Z,47.08
2023-08-29T22:42:13.088Z,46.82
2023-08-29T22:47:14.474Z,46.86
2023-08-29T22:52:15.791Z,47.05
2023-08-29T22:57:20.470Z,46.86
2023-08-29T23:02:21.791Z,47.01
2023-08-29T23:07:23.224Z,46.77
2023-08-29T23:12:24.628Z,47.10
2023-08-29T23:17:25.973Z,47.17
2023-08-29T23:22:27.890Z,46.86
2023-08-29T23:27:31.550Z,46.92
2023-08-29T23:32:33.178Z,46.93
2023-08-29T23:37:36.294Z,47.20
2023-08-29T23:42:37.878Z,47.03
2023-08-29T23:47:39.191Z,47.35
2023-08-29T23:52:40.950Z,47.26
2023-08-29T23:57:42.246Z,47.19
